createdAt,value
2022-10-27T00:02:35.837Z,10.52
2022-10-27T00:05:41.655Z,10.49
2022-10-27T00:08:47.206Z,10.47
2022-10-27T00:11:52.608Z,10.45
2022-10-27T00:14:58.101Z,10.41
2022-10-27T00:18:08.152Z,10.39
2022-10-27T00:21:16.110Z,10.37
2022-10-27T00:24:22.025Z,10.36
2022-10-27T00:27:28.393Z,10.36
2022-10-27T00:30:33.934Z,10.34
2022-10-27T00:33:39.588Z,10.33
2022-10-27T00:36:45.139Z,10.31
2022-10-27T00:39:50.993Z,10.29
2022-10-27T00:42:56.433Z,10.26
2022-10-27T00:46:06.438Z,10.25
2022-10-27T00:49:15.270Z,10.22
2022-10-27T00:52:26.812Z,10.19
2022-10-27T00:55:35.841Z,10.17
2022-10-27T00:58:42.855Z,10.14
2022-10-27T01:01:50.577Z,10.13
2022-10-27T01:05:01.247Z,10.12
2022-10-27T01:08:08.692Z,10.10
2022-10-27T01:11:14.282Z,10.08
2022-10-27T01:14:19.764Z,10.07
2022-10-27T01:17:40.131Z,10.04
2022-10-27T01:21:04.328Z,10.00
2022-10-27T01:24:35.521Z,9.96
2022-10-27T01:28:19.981Z,9.91
2022-10-27T01:31:29.257Z,9.85
2022-10-27T01:34:42.139Z,9.82
2022-10-27T01:37:53.685Z,9.81
2022-10-27T01:41:03.926Z,9.79
2022-10-27T01:44:16.553Z,9.75
2022-10-27T01:47:24.101Z,9.72
2022-10-27T01:50:45.449Z,9.71
2022-10-27T01:54:00.594Z,9.68
2022-10-27T01:57:18.332Z,9.67
2022-10-27T02:00:23.982Z,9.66
2022-10-27T02:03:36.661Z,9.64
2022-10-27T02:06:50.135Z,9.59
2022-10-27T02:10:00.599Z,9.56
2022-10-27T02:13:06.893Z,9.53
2022-10-27T02:16:13.539Z,9.52
2022-10-27T02:19:23.948Z,9.48
2022-10-27T02:22:33.168Z,9.47
2022-10-27T02:25:46.266Z,9.44
2022-10-27T02:28:57.261Z,9.41
2022-10-27T02:32:06.441Z,9.36
2022-10-27T02:35:13.859Z,9.30
2022-10-27T02:38:19.524Z,9.27
2022-10-27T02:41:25.050Z,9.26
2022-10-27T02:44:30.519Z,9.27
2022-10-27T02:47:36.068Z,9.26
2022-10-27T02:50:41.637Z,9.26
2022-10-27T02:53:47.168Z,9.25
2022-10-27T02:56:52.819Z,9.23
2022-10-27T02:59:58.268Z,9.20
2022-10-27T03:03:03.917Z,9.15
2022-10-27T03:06:09.557Z,9.10
2022-10-27T03:09:15.120Z,9.06
2022-10-27T03:12:20.565Z,9.04
2022-10-27T03:15:26.116Z,9.02
2022-10-27T03:18:31.562Z,9.00
2022-10-27T03:21:37.010Z,8.99
2022-10-27T03:24:42.504Z,9.00
2022-10-27T03:27:48.006Z,9.01
2022-10-27T03:30:53.759Z,9.03
2022-10-27T03:33:59.167Z,9.06
2022-10-27T03:37:04.654Z,9.08
2022-10-27T03:40:12.742Z,9.09
2022-10-27T03:43:18.314Z,9.09
2022-10-27T03:46:23.761Z,9.06
2022-10-27T03:49:29.335Z,9.02
2022-10-27T03:52:34.960Z,8.97
2022-10-27T03:55:40.407Z,8.95
2022-10-27T03:58:45.956Z,8.96
2022-10-27T04:01:51.788Z,8.97
2022-10-27T04:05:00.046Z,8.98
2022-10-27T04:08:05.664Z,8.97
2022-10-27T04:11:11.126Z,8.96
2022-10-27T04:14:16.557Z,8.92
2022-10-27T04:17:22.121Z,8.90
2022-10-27T04:20:28.697Z,8.88
2022-10-27T04:23:34.345Z,8.88
2022-10-27T04:26:39.793Z,8.87
2022-10-27T04:29:45.205Z,8.85
2022-10-27T04:32:54.592Z,8.83
2022-10-27T04:36:00.885Z,8.78
2022-10-27T04:39:04.842Z,8.76
2022-10-27T04:42:11.741Z,8.71
2022-10-27T04:45:17.948Z,8.70
2022-10-27T04:48:23.451Z,8.69
2022-10-27T04:51:28.942Z,8.66
2022-10-27T04:54:34.550Z,8.65
2022-10-27T04:57:39.960Z,8.65
2022-10-27T05:00:45.397Z,8.64
2022-10-27T05:03:51.128Z,8.63
2022-10-27T05:06:56.544Z,8.63
2022-10-27T05:10:01.954Z,8.62
2022-10-27T05:13:07.406Z,8.60
2022-10-27T05:16:12.883Z,8.56
2022-10-27T05:19:18.332Z,8.55
2022-10-27T05:22:23.732Z,8.53
2022-10-27T05:25:29.315Z,8.50
2022-10-27T05:28:35.084Z,8.48
2022-10-27T05:31:40.508Z,8.48
2022-10-27T05:34:46.080Z,8.46
2022-10-27T05:37:51.969Z,8.44
2022-10-27T05:41:00.965Z,8.42
2022-10-27T05:44:06.677Z,8.41
2022-10-27T05:47:12.474Z,8.39
2022-10-27T05:50:18.208Z,8.41
2022-10-27T05:53:23.930Z,8.44
2022-10-27T05:56:29.431Z,8.48
2022-10-27T05:59:34.878Z,8.54
2022-10-27T06:02:40.310Z,8.60
2022-10-27T06:05:45.873Z,8.66
2022-10-27T06:08:51.297Z,8.72
2022-10-27T06:11:56.754Z,8.79
2022-10-27T06:15:02.315Z,8.84
2022-10-27T06:18:08.069Z,8.87
2022-10-27T06:21:13.776Z,8.90
2022-10-27T06:24:19.164Z,8.96
2022-10-27T06:27:24.718Z,9.00
2022-10-27T06:30:30.168Z,9.04
2022-10-27T06:33:35.714Z,9.08
2022-10-27T06:36:41.160Z,9.11
2022-10-27T06:39:47.428Z,9.15
2022-10-27T06:43:08.186Z,9.18
2022-10-27T06:46:14.277Z,9.20
2022-10-27T06:49:20.052Z,9.27
2022-10-27T06:52:25.812Z,9.35
2022-10-27T06:55:31.718Z,9.43
2022-10-27T06:58:39.522Z,9.51
2022-10-27T07:01:45.105Z,9.56
2022-10-27T07:04:50.665Z,9.59
2022-10-27T07:07:57.482Z,9.62
2022-10-27T07:11:03.094Z,9.67
2022-10-27T07:14:08.747Z,9.75
2022-10-27T07:17:14.200Z,9.83
2022-10-27T07:20:19.641Z,9.91
2022-10-27T07:23:25.073Z,9.99
2022-10-27T07:26:30.841Z,10.09
2022-10-27T07:29:36.289Z,10.16
2022-10-27T07:32:41.837Z,10.24
2022-10-27T07:35:51.101Z,10.32
2022-10-27T07:38:57.017Z,10.40
2022-10-27T07:42:03.195Z,10.48
2022-10-27T07:45:10.489Z,10.58
2022-10-27T07:48:17.624Z,10.67
2022-10-27T07:51:23.326Z,10.76
2022-10-27T07:54:29.721Z,10.87
2022-10-27T07:57:35.244Z,10.97
2022-10-27T08:00:42.638Z,11.06
2022-10-27T08:03:51.111Z,11.14
2022-10-27T08:06:57.012Z,11.24
2022-10-27T08:10:02.971Z,11.35
2022-10-27T08:13:10.000Z,11.45
2022-10-27T08:16:15.605Z,11.58
2022-10-27T08:19:21.377Z,11.70
2022-10-27T08:22:27.056Z,11.83
2022-10-27T08:25:33.193Z,11.97
2022-10-27T08:28:38.615Z,12.12
2022-10-27T08:31:44.024Z,12.26
2022-10-27T08:34:51.593Z,12.39
2022-10-27T08:38:02.597Z,12.53
2022-10-27T08:41:21.150Z,12.68
2022-10-27T08:44:33.095Z,12.85
2022-10-27T08:47:38.850Z,13.02
2022-10-27T08:50:46.060Z,13.17
2022-10-27T08:53:55.133Z,13.30
2022-10-27T08:57:04.510Z,13.44
2022-10-27T09:00:15.399Z,13.60
2022-10-27T09:03:37.832Z,13.78
2022-10-27T09:06:57.564Z,13.93
2022-10-27T09:10:07.359Z,14.12
2022-10-27T09:13:27.172Z,14.27
2022-10-27T09:16:39.972Z,14.46
2022-10-27T09:19:49.709Z,14.63
2022-10-27T09:22:57.409Z,14.77
2022-10-27T09:26:02.896Z,14.91
2022-10-27T09:29:17.519Z,15.10
2022-10-27T09:32:27.472Z,15.29
2022-10-27T09:35:32.919Z,15.49
2022-10-27T09:38:38.688Z,15.65
2022-10-27T09:41:44.428Z,15.80
2022-10-27T09:44:55.612Z,15.96
2022-10-27T09:48:07.448Z,16.11
2022-10-27T09:51:20.429Z,16.25
2022-10-27T09:54:34.161Z,16.38
2022-10-27T09:57:42.179Z,16.51
2022-10-27T10:00:56.538Z,16.63
2022-10-27T10:04:17.085Z,16.73
2022-10-27T10:07:40.367Z,16.84
2022-10-27T10:10:57.222Z,16.96
2022-10-27T10:14:04.151Z,17.06
2022-10-27T10:17:27.759Z,17.14
2022-10-27T10:20:39.565Z,17.28
2022-10-27T10:23:54.238Z,17.42
2022-10-27T10:27:01.932Z,17.55
2022-10-27T10:30:19.198Z,17.68
2022-10-27T10:33:27.470Z,17.85
2022-10-27T10:36:38.558Z,18.00
2022-10-27T10:39:44.098Z,18.14
2022-10-27T10:43:01.319Z,18.32
2022-10-27T10:46:08.514Z,18.48
2022-10-27T10:49:23.345Z,18.64
2022-10-27T10:52:34.875Z,18.81
2022-10-27T10:55:41.130Z,19.01
2022-10-27T10:58:47.508Z,19.19
2022-10-27T11:01:57.502Z,19.38
2022-10-27T11:05:15.650Z,19.58
2022-10-27T11:08:24.359Z,19.42
2022-10-27T11:11:37.554Z,19.17
2022-10-27T11:14:46.706Z,19.48
2022-10-27T11:17:57.661Z,19.68
2022-10-27T11:21:08.656Z,19.56
2022-10-27T11:24:21.461Z,19.90
2022-10-27T11:27:33.881Z,20.21
2022-10-27T11:30:47.101Z,20.01
2022-10-27T11:33:58.995Z,19.81
2022-10-27T11:37:08.642Z,19.76
2022-10-27T11:40:23.419Z,19.79
2022-10-27T11:43:34.661Z,20.24
2022-10-27T11:46:44.614Z,20.58
2022-10-27T11:49:55.214Z,20.37
2022-10-27T11:53:02.088Z,20.09
2022-10-27T11:56:21.583Z,19.87
2022-10-27T11:59:38.998Z,19.78
2022-10-27T12:03:09.130Z,19.70
2022-10-27T12:06:22.767Z,19.55
2022-10-27T12:09:40.902Z,19.61
2022-10-27T12:12:49.078Z,20.17
2022-10-27T12:16:00.504Z,20.56
2022-10-27T12:19:11.787Z,20.41
2022-10-27T12:22:23.584Z,20.17
2022-10-27T12:25:34.418Z,20.03
2022-10-27T12:28:40.301Z,19.97
2022-10-27T12:31:47.703Z,19.95
2022-10-27T12:34:59.460Z,19.89
2022-10-27T12:38:13.142Z,19.86
2022-10-27T12:41:29.035Z,19.81
2022-10-27T12:44:46.210Z,19.78
2022-10-27T12:48:01.677Z,19.79
2022-10-27T12:51:23.465Z,19.80
2022-10-27T12:58:02.932Z,19.80
2022-10-27T13:01:15.632Z,19.78
2022-10-27T13:04:45.470Z,19.77
2022-10-27T13:08:15.389Z,19.78
2022-10-27T13:11:35.065Z,19.81
2022-10-27T13:15:17.686Z,19.82
2022-10-27T13:18:58.474Z,19.77
2022-10-27T13:22:12.572Z,19.75
2022-10-27T13:25:22.706Z,19.73
2022-10-27T13:28:34.363Z,19.72
2022-10-27T13:31:40.316Z,19.71
2022-10-27T13:34:44.541Z,19.67
2022-10-27T13:38:10.771Z,19.64
2022-10-27T13:42:07.583Z,19.57
2022-10-27T13:45:43.893Z,19.52
2022-10-27T13:48:53.353Z,19.65
2022-10-27T13:55:37.957Z,20.52
2022-10-27T13:58:57.705Z,20.23
2022-10-27T14:02:10.943Z,19.96
2022-10-27T14:05:26.802Z,19.80
2022-10-27T14:08:31.860Z,19.67
2022-10-27T14:11:37.619Z,19.56
2022-10-27T14:14:43.785Z,19.47
2022-10-27T14:17:50.861Z,19.38
2022-10-27T14:21:00.470Z,19.29
2022-10-27T14:24:11.486Z,19.20
2022-10-27T14:27:18.881Z,19.11
2022-10-27T14:30:25.129Z,19.03
2022-10-27T14:33:30.694Z,18.93
2022-10-27T14:36:38.289Z,18.82
2022-10-27T14:39:44.155Z,18.71
2022-10-27T14:42:50.973Z,18.61
2022-10-27T14:46:01.288Z,18.51
2022-10-27T14:49:10.664Z,18.41
2022-10-27T14:52:21.503Z,18.31
2022-10-27T14:55:33.707Z,18.19
2022-10-27T14:58:39.255Z,18.06
2022-10-27T15:01:45.692Z,18.06
2022-10-27T15:04:51.273Z,18.48
2022-10-27T15:07:59.792Z,18.85
2022-10-27T15:11:08.675Z,19.09
2022-10-27T15:14:14.170Z,19.21
2022-10-27T15:17:24.633Z,19.18
2022-10-27T15:20:30.287Z,18.68
2022-10-27T15:23:36.577Z,18.21
2022-10-27T15:26:42.445Z,17.84
2022-10-27T15:29:52.396Z,17.65
2022-10-27T15:32:57.910Z,17.93
2022-10-27T15:36:20.193Z,18.17
2022-10-27T15:39:26.319Z,18.29
2022-10-27T15:42:39.368Z,18.35
2022-10-27T15:45:45.857Z,18.36
2022-10-27T15:48:57.207Z,18.37
2022-10-27T15:52:07.823Z,18.36
2022-10-27T15:55:24.918Z,18.33
2022-10-27T15:58:32.904Z,18.28
2022-10-27T16:01:38.781Z,18.23
2022-10-27T16:04:47.334Z,18.17
2022-10-27T16:07:55.346Z,18.10
2022-10-27T16:11:01.030Z,18.04
2022-10-27T16:14:12.160Z,17.97
2022-10-27T16:17:20.662Z,17.91
2022-10-27T16:20:29.158Z,17.85
2022-10-27T16:23:34.698Z,17.78
2022-10-27T16:26:40.441Z,17.70
2022-10-27T16:29:45.990Z,17.63
2022-10-27T16:32:57.694Z,17.55
2022-10-27T16:36:03.082Z,17.47
2022-10-27T16:39:08.589Z,17.41
2022-10-27T16:42:14.311Z,17.33
2022-10-27T16:45:21.560Z,17.24
2022-10-27T16:48:27.185Z,17.15
2022-10-27T16:51:32.650Z,17.06
2022-10-27T16:54:39.103Z,16.96
2022-10-27T16:57:47.243Z,16.87
2022-10-27T17:00:55.151Z,16.78
2022-10-27T17:04:04.401Z,16.67
2022-10-27T17:07:10.005Z,16.58
2022-10-27T17:10:16.979Z,16.48
2022-10-27T17:13:22.648Z,16.40
2022-10-27T17:16:28.073Z,16.34
2022-10-27T17:19:33.622Z,16.28
2022-10-27T17:22:39.594Z,16.23
2022-10-27T17:25:45.043Z,16.15
2022-10-27T17:28:52.281Z,16.07
2022-10-27T17:31:57.735Z,15.98
2022-10-27T17:35:03.226Z,15.88
2022-10-27T17:38:08.674Z,15.80
2022-10-27T17:41:14.222Z,15.69
2022-10-27T17:44:19.772Z,15.59
2022-10-27T17:47:25.562Z,15.51
2022-10-27T17:50:32.646Z,15.42
2022-10-27T17:53:39.433Z,15.34
2022-10-27T17:56:44.859Z,15.26
2022-10-27T17:59:50.386Z,15.19
2022-10-27T18:02:55.974Z,15.13
2022-10-27T18:06:03.946Z,15.08
2022-10-27T18:09:11.082Z,15.03
2022-10-27T18:12:16.578Z,14.97
2022-10-27T18:15:35.582Z,14.92
2022-10-27T18:18:42.364Z,14.86
2022-10-27T18:21:49.503Z,14.81
2022-10-27T18:24:54.950Z,14.75
2022-10-27T18:28:00.720Z,14.69
2022-10-27T18:31:11.304Z,14.63
2022-10-27T18:34:17.065Z,14.59
2022-10-27T18:37:22.581Z,14.54
2022-10-27T18:40:28.131Z,14.50
2022-10-27T18:43:33.934Z,14.44
2022-10-27T18:46:39.435Z,14.38
2022-10-27T18:49:48.795Z,14.29
2022-10-27T18:52:55.032Z,14.19
2022-10-27T18:56:02.965Z,14.12
2022-10-27T18:59:08.435Z,14.05
2022-10-27T19:02:14.186Z,13.99
2022-10-27T19:05:19.770Z,13.94
2022-10-27T19:08:25.756Z,13.87
2022-10-27T19:11:31.752Z,13.81
2022-10-27T19:14:37.192Z,13.75
2022-10-27T19:17:43.121Z,13.71
2022-10-27T19:20:48.672Z,13.66
2022-10-27T19:23:58.112Z,13.63
2022-10-27T19:27:03.655Z,13.59
2022-10-27T19:30:11.311Z,13.57
2022-10-27T19:33:16.807Z,13.53
2022-10-27T19:36:24.450Z,13.50
2022-10-27T19:39:29.886Z,13.47
2022-10-27T19:42:36.673Z,13.46
2022-10-27T19:45:49.412Z,13.44
2022-10-27T19:48:56.481Z,13.41
2022-10-27T19:52:01.983Z,13.37
2022-10-27T19:55:08.717Z,13.33
2022-10-27T19:58:14.112Z,13.28
2022-10-27T20:01:22.043Z,13.22
2022-10-27T20:04:27.767Z,13.15
2022-10-27T20:07:33.212Z,13.09
2022-10-27T20:10:41.937Z,13.05
2022-10-27T20:13:48.724Z,13.00
2022-10-27T20:16:54.264Z,12.95
2022-10-27T20:19:59.916Z,12.91
2022-10-27T20:23:06.080Z,12.85
2022-10-27T20:26:29.984Z,12.77
2022-10-27T20:29:36.004Z,12.67
2022-10-27T20:32:43.689Z,12.60
2022-10-27T20:35:49.782Z,12.56
2022-10-27T20:38:56.662Z,12.51
2022-10-27T20:42:02.064Z,12.46
2022-10-27T20:45:09.095Z,12.42
2022-10-27T20:48:14.540Z,12.39
2022-10-27T20:51:21.601Z,12.37
2022-10-27T20:54:27.162Z,12.34
2022-10-27T20:57:32.725Z,12.32
2022-10-27T21:00:38.168Z,12.29
2022-10-27T21:03:43.605Z,12.26
2022-10-27T21:06:52.239Z,12.23
2022-10-27T21:09:57.690Z,12.21
2022-10-27T21:13:03.122Z,12.19
2022-10-27T21:16:09.521Z,12.16
2022-10-27T21:19:14.951Z,12.12
2022-10-27T21:22:20.601Z,12.07
2022-10-27T21:25:27.594Z,11.97
2022-10-27T21:28:33.025Z,11.87
2022-10-27T21:31:38.468Z,11.81
2022-10-27T21:34:43.896Z,11.77
2022-10-27T21:37:49.828Z,11.74
2022-10-27T21:40:58.630Z,11.72
2022-10-27T21:44:04.083Z,11.70
2022-10-27T21:47:09.503Z,11.66
2022-10-27T21:50:14.930Z,11.60
2022-10-27T21:53:20.972Z,11.55
2022-10-27T21:56:26.853Z,11.51
2022-10-27T21:59:32.519Z,11.49
2022-10-27T22:02:37.966Z,11.48
2022-10-27T22:05:43.969Z,11.47
2022-10-27T22:08:50.513Z,11.46
2022-10-27T22:11:56.014Z,11.43
2022-10-27T22:15:01.445Z,11.41
2022-10-27T22:18:06.953Z,11.38
2022-10-27T22:21:15.612Z,11.37
2022-10-27T22:24:21.113Z,11.34
2022-10-27T22:27:26.538Z,11.30
2022-10-27T22:30:31.985Z,11.23
2022-10-27T22:33:41.827Z,11.19
2022-10-27T22:36:51.122Z,11.17
2022-10-27T22:39:57.684Z,11.15
2022-10-27T22:43:03.122Z,11.12
2022-10-27T22:46:11.483Z,11.08
2022-10-27T22:49:16.978Z,11.08
2022-10-27T22:52:22.427Z,11.07
2022-10-27T22:55:27.975Z,11.08
2022-10-27T22:58:33.653Z,11.09
2022-10-27T23:01:40.812Z,11.09
2022-10-27T23:04:46.468Z,11.09
2022-10-27T23:07:52.015Z,11.08
2022-10-27T23:10:58.725Z,11.05
2022-10-27T23:14:04.572Z,11.03
2022-10-27T23:17:11.534Z,11.01
2022-10-27T23:20:17.284Z,10.98
2022-10-27T23:23:22.732Z,10.96
2022-10-27T23:26:30.036Z,10.92
2022-10-27T23:29:35.556Z,10.89
2022-10-27T23:32:40.944Z,10.86
2022-10-27T23:35:55.730Z,10.80
2022-10-27T23:39:01.337Z,10.75
2022-10-27T23:42:07.201Z,10.72
2022-10-27T23:45:13.378Z,10.69
2022-10-27T23:48:18.905Z,10.65
2022-10-27T23:51:25.239Z,10.59
2022-10-27T23:54:30.719Z,10.52
2022-10-27T23:57:36.166Z,10.48
